sensor_id;sensor_type;location;lat;lon;timestamp;pressure;altitude;pressure_sealevel;temperature;humidity
76609;BME280;65928;53.936;27.540;2023-03-13T00:01:41;98331.63;;;-4.13;66.78
76609;BME280;65928;53.936;27.540;2023-03-13T00:04:07;98675.81;;;-2.07;66.68
76609;BME280;65928;53.936;27.540;2023-03-13T00:06:35;98683.41;;;-1.86;65.10
76609;BME280;65928;53.936;27.540;2023-03-13T00:09:02;98351.28;;;-3.94;65.17
76609;BME280;65928;53.936;27.540;2023-03-13T00:11:29;98665.50;;;-2.13;65.21
76609;BME280;65928;53.936;27.540;2023-03-13T00:13:56;98680.13;;;-2.07;64.55
76609;BME280;65928;53.936;27.540;2023-03-13T00:16:22;98641.28;;;-2.06;64.50
76609;BME280;65928;53.936;27.540;2023-03-13T00:18:50;98607.06;;;-2.44;64.30
76609;BME280;65928;53.936;27.540;2023-03-13T00:21:18;98360.03;;;-4.31;64.23
76609;BME280;65928;53.936;27.540;2023-03-13T00:23:44;98360.94;;;-4.33;64.09
76609;BME280;65928;53.936;27.540;2023-03-13T00:26:12;98372.91;;;-4.19;64.80
76609;BME280;65928;53.936;27.540;2023-03-13T00:28:39;98574.59;;;-2.95;63.73
76609;BME280;65928;53.936;27.540;2023-03-13T00:33:34;98706.00;;;-2.07;63.05
76609;BME280;65928;53.936;27.540;2023-03-13T00:36:01;98373.63;;;-3.85;62.52
76609;BME280;65928;53.936;27.540;2023-03-13T00:38:28;98695.88;;;-2.43;63.42
76609;BME280;65928;53.936;27.540;2023-03-13T00:40:59;98713.00;;;-2.27;62.98
76609;BME280;65928;53.936;27.540;2023-03-13T00:43:24;98360.88;;;-4.20;62.80
76609;BME280;65928;53.936;27.540;2023-03-13T00:45:50;98718.25;;;-2.36;63.19
76609;BME280;65928;53.936;27.540;2023-03-13T00:48:15;98710.28;;;-2.03;63.00
76609;BME280;65928;53.936;27.540;2023-03-13T00:50:41;98716.56;;;-2.43;62.22
76609;BME280;65928;53.936;27.540;2023-03-13T00:53:06;98718.31;;;-2.51;62.43
76609;BME280;65928;53.936;27.540;2023-03-13T00:55:31;98389.31;;;-4.48;62.92
76609;BME280;65928;53.936;27.540;2023-03-13T00:57:57;98439.94;;;-4.19;62.51
76609;BME280;65928;53.936;27.540;2023-03-13T01:00:23;98749.34;;;-2.54;62.37
76609;BME280;65928;53.936;27.540;2023-03-13T01:02:48;98396.19;;;-4.41;61.99
76609;BME280;65928;53.936;27.540;2023-03-13T01:05:14;98389.22;;;-4.12;62.09
76609;BME280;65928;53.936;27.540;2023-03-13T01:07:39;98728.59;;;-2.36;61.59
76609;BME280;65928;53.936;27.540;2023-03-13T01:10:05;98728.41;;;-2.03;60.72
76609;BME280;65928;53.936;27.540;2023-03-13T01:12:31;98714.78;;;-2.29;60.74
76609;BME280;65928;53.936;27.540;2023-03-13T01:14:56;98448.41;;;-3.72;60.95
76609;BME280;65928;53.936;27.540;2023-03-13T01:17:21;98673.44;;;-2.46;60.56
76609;BME280;65928;53.936;27.540;2023-03-13T01:19:47;98461.28;;;-3.64;60.63
76609;BME280;65928;53.936;27.540;2023-03-13T01:22:12;98708.84;;;-2.51;61.11
76609;BME280;65928;53.936;27.540;2023-03-13T01:24:38;98564.34;;;-3.11;60.21
76609;BME280;65928;53.936;27.540;2023-03-13T01:27:04;98415.06;;;-4.26;61.45
76609;BME280;65928;53.936;27.540;2023-03-13T01:29:29;98722.56;;;-2.43;60.92
76609;BME280;65928;53.936;27.540;2023-03-13T01:31:54;98387.59;;;-4.45;60.17
76609;BME280;65928;53.936;27.540;2023-03-13T01:34:20;98738.19;;;-2.70;61.58
76609;BME280;65928;53.936;27.540;2023-03-13T01:36:45;98737.25;;;-2.43;61.35
76609;BME280;65928;53.936;27.540;2023-03-13T01:39:15;98523.13;;;-3.41;60.20
76609;BME280;65928;53.936;27.540;2023-03-13T01:41:41;98708.88;;;-2.66;60.60
76609;BME280;65928;53.936;27.540;2023-03-13T01:44:21;98396.22;;;-4.72;61.22
76609;BME280;65928;53.936;27.540;2023-03-13T01:46:47;98506.13;;;-4.06;60.98
76609;BME280;65928;53.936;27.540;2023-03-13T01:49:25;98730.47;;;-2.84;60.69
76609;BME280;65928;53.936;27.540;2023-03-13T01:51:54;98408.22;;;-4.54;60.70
76609;BME280;65928;53.936;27.540;2023-03-13T01:54:27;98751.91;;;-2.45;60.99
76609;BME280;65928;53.936;27.540;2023-03-13T01:57:00;98754.53;;;-2.57;60.38
76609;BME280;65928;53.936;27.540;2023-03-13T01:59:34;98493.16;;;-3.85;59.81
76609;BME280;65928;53.936;27.540;2023-03-13T02:02:03;98740.78;;;-2.62;60.39
76609;BME280;65928;53.936;27.540;2023-03-13T02:04:38;98697.03;;;-3.29;60.74
76609;BME280;65928;53.936;27.540;2023-03-13T02:07:10;98427.16;;;-4.75;60.41
76609;BME280;65928;53.936;27.540;2023-03-13T02:09:39;98435.75;;;-4.73;60.17
76609;BME280;65928;53.936;27.540;2023-03-13T02:12:08;98771.88;;;-2.88;60.93
76609;BME280;65928;53.936;27.540;2023-03-13T02:14:37;98754.63;;;-2.89;60.34
76609;BME280;65928;53.936;27.540;2023-03-13T02:17:04;98813.19;;;-2.62;60.53
76609;BME280;65928;53.936;27.540;2023-03-13T02:19:46;98480.38;;;-4.27;60.03
76609;BME280;65928;53.936;27.540;2023-03-13T02:25:07;98438.31;;;-4.82;60.26
76609;BME280;65928;53.936;27.540;2023-03-13T02:27:35;98678.94;;;-3.57;60.90
76609;BME280;65928;53.936;27.540;2023-03-13T02:30:02;98791.66;;;-2.77;60.80
76609;BME280;65928;53.936;27.540;2023-03-13T02:32:29;98765.00;;;-2.92;60.24
76609;BME280;65928;53.936;27.540;2023-03-13T02:34:58;98797.72;;;-2.94;60.65
76609;BME280;65928;53.936;27.540;2023-03-13T02:37:28;98773.63;;;-3.23;60.54
76609;BME280;65928;53.936;27.540;2023-03-13T02:39:55;98713.38;;;-3.69;61.07
76609;BME280;65928;53.936;27.540;2023-03-13T02:42:22;98433.16;;;-5.06;60.53
76609;BME280;65928;53.936;27.540;2023-03-13T02:44:49;98779.66;;;-3.26;60.95
76609;BME280;65928;53.936;27.540;2023-03-13T02:47:20;98815.81;;;-3.11;60.83
76609;BME280;65928;53.936;27.540;2023-03-13T02:49:46;98808.06;;;-3.02;60.66
76609;BME280;65928;53.936;27.540;2023-03-13T02:52:19;98806.34;;;-2.86;59.84
76609;BME280;65928;53.936;27.540;2023-03-13T02:54:47;98835.56;;;-2.66;59.96
76609;BME280;65928;53.936;27.540;2023-03-13T02:57:13;98467.50;;;-4.98;60.03
76609;BME280;65928;53.936;27.540;2023-03-13T02:59:39;98543.97;;;-4.65;60.30
76609;BME280;65928;53.936;27.540;2023-03-13T03:02:04;98794.19;;;-2.66;59.35
76609;BME280;65928;53.936;27.540;2023-03-13T03:04:30;98527.63;;;-4.10;58.96
76609;BME280;65928;53.936;27.540;2023-03-13T03:06:56;98820.78;;;-2.23;58.63
76609;BME280;65928;53.936;27.540;2023-03-13T03:09:22;98748.50;;;-2.49;58.79
76609;BME280;65928;53.936;27.540;2023-03-13T03:11:48;98462.34;;;-4.36;58.67
76609;BME280;65928;53.936;27.540;2023-03-13T03:14:13;98815.75;;;-2.49;59.16
76609;BME280;65928;53.936;27.540;2023-03-13T03:16:39;98824.41;;;-2.72;59.41
76609;BME280;65928;53.936;27.540;2023-03-13T03:19:05;98798.50;;;-2.57;58.90
76609;BME280;65928;53.936;27.540;2023-03-13T03:21:31;98450.34;;;-4.76;59.06
76609;BME280;65928;53.936;27.540;2023-03-13T03:23:57;98814.88;;;-2.54;59.25
76609;BME280;65928;53.936;27.540;2023-03-13T03:26:23;98820.03;;;-2.49;59.21
76609;BME280;65928;53.936;27.540;2023-03-13T03:28:49;98775.28;;;-2.74;58.82
76609;BME280;65928;53.936;27.540;2023-03-13T03:31:15;98472.66;;;-4.95;59.19
76609;BME280;65928;53.936;27.540;2023-03-13T03:33:41;98852.00;;;-2.76;60.45
76609;BME280;65928;53.936;27.540;2023-03-13T03:36:14;98749.50;;;-3.06;59.76
76609;BME280;65928;53.936;27.540;2023-03-13T03:38:41;98464.97;;;-4.72;59.37
76609;BME280;65928;53.936;27.540;2023-03-13T03:41:07;98515.63;;;-4.44;59.01
76609;BME280;65928;53.936;27.540;2023-03-13T03:43:34;98830.41;;;-2.63;59.64
76609;BME280;65928;53.936;27.540;2023-03-13T03:46:00;98461.50;;;-4.65;59.15
76609;BME280;65928;53.936;27.540;2023-03-13T03:48:25;98818.28;;;-2.46;59.51
76609;BME280;65928;53.936;27.540;2023-03-13T03:50:51;98846.81;;;-2.91;60.73
76609;BME280;65928;53.936;27.540;2023-03-13T03:53:16;98804.59;;;-2.70;59.40
76609;BME280;65928;53.936;27.540;2023-03-13T03:55:42;98851.13;;;-2.64;59.39
76609;BME280;65928;53.936;27.540;2023-03-13T03:58:08;98743.50;;;-3.09;60.14
76609;BME280;65928;53.936;27.540;2023-03-13T04:00:33;98484.69;;;-4.77;60.05
76609;BME280;65928;53.936;27.540;2023-03-13T04:02:59;98537.97;;;-4.53;60.30
76609;BME280;65928;53.936;27.540;2023-03-13T04:05:24;98529.38;;;-4.63;60.41
76609;BME280;65928;53.936;27.540;2023-03-13T04:07:50;98857.16;;;-2.99;61.07
76609;BME280;65928;53.936;27.540;2023-03-13T04:10:16;98461.47;;;-5.04;60.85
76609;BME280;65928;53.936;27.540;2023-03-13T04:12:42;98495.84;;;-4.93;61.01
76609;BME280;65928;53.936;27.540;2023-03-13T04:15:08;98839.94;;;-2.85;60.66
76609;BME280;65928;53.936;27.540;2023-03-13T04:17:34;98851.13;;;-2.84;60.93
76609;BME280;65928;53.936;27.540;2023-03-13T04:19:59;98889.91;;;-2.84;61.20
76609;BME280;65928;53.936;27.540;2023-03-13T04:22:25;98901.13;;;-2.88;60.90
76609;BME280;65928;53.936;27.540;2023-03-13T04:24:51;98577.50;;;-4.38;60.43
76609;BME280;65928;53.936;27.540;2023-03-13T04:27:17;98606.75;;;-4.31;60.28
76609;BME280;65928;53.936;27.540;2023-03-13T04:29:42;98876.13;;;-2.85;60.80
76609;BME280;65928;53.936;27.540;2023-03-13T04:32:08;98910.59;;;-2.90;61.16
76609;BME280;65928;53.936;27.540;2023-03-13T04:34:33;98547.38;;;-4.74;61.10
76609;BME280;65928;53.936;27.540;2023-03-13T04:36:59;98535.34;;;-4.88;61.14
76609;BME280;65928;53.936;27.540;2023-03-13T04:39:25;98870.09;;;-2.82;61.63
76609;BME280;65928;53.936;27.540;2023-03-13T04:41:51;98845.06;;;-2.82;60.97
76609;BME280;65928;53.936;27.540;2023-03-13T04:44:17;98589.56;;;-4.29;60.78
76609;BME280;65928;53.936;27.540;2023-03-13T04:46:42;98890.75;;;-2.62;60.40
76609;BME280;65928;53.936;27.540;2023-03-13T04:49:08;98598.13;;;-4.39;60.77
76609;BME280;65928;53.936;27.540;2023-03-13T04:51:33;98891.63;;;-2.72;61.34
76609;BME280;65928;53.936;27.540;2023-03-13T04:53:59;98881.25;;;-2.45;60.63
76609;BME280;65928;53.936;27.540;2023-03-13T04:56:26;98895.91;;;-2.49;60.97
76609;BME280;65928;53.936;27.540;2023-03-13T04:58:51;98587.84;;;-4.26;60.67
76609;BME280;65928;53.936;27.540;2023-03-13T05:01:17;98893.31;;;-2.50;60.68
76609;BME280;65928;53.936;27.540;2023-03-13T05:03:43;98545.69;;;-4.44;61.10
76609;BME280;65928;53.936;27.540;2023-03-13T05:06:08;98814.94;;;-2.95;61.08
76609;BME280;65928;53.936;27.540;2023-03-13T05:08:34;98895.03;;;-2.46;61.20
76609;BME280;65928;53.936;27.540;2023-03-13T05:11:01;98543.13;;;-4.35;60.94
76609;BME280;65928;53.936;27.540;2023-03-13T05:13:27;98905.34;;;-2.27;60.71
76609;BME280;65928;53.936;27.540;2023-03-13T05:15:52;98892.47;;;-2.63;61.24
76609;BME280;65928;53.936;27.540;2023-03-13T05:18:17;98931.28;;;-2.77;61.42
76609;BME280;65928;53.936;27.540;2023-03-13T05:20:43;98513.00;;;-5.01;61.33
76609;BME280;65928;53.936;27.540;2023-03-13T05:23:08;98534.53;;;-4.65;60.66
76609;BME280;65928;53.936;27.540;2023-03-13T05:25:34;98913.09;;;-2.22;61.07
76609;BME280;65928;53.936;27.540;2023-03-13T05:27:59;98920.84;;;-2.16;60.54
76609;BME280;65928;53.936;27.540;2023-03-13T05:30:25;98884.69;;;-2.48;60.51
76609;BME280;65928;53.936;27.540;2023-03-13T05:32:51;98672.09;;;-3.71;60.72
76609;BME280;65928;53.936;27.540;2023-03-13T05:35:16;98588.69;;;-3.95;60.18
76609;BME280;65928;53.936;27.540;2023-03-13T05:37:42;98723.72;;;-3.63;60.37
76609;BME280;65928;53.936;27.540;2023-03-13T05:40:08;98923.41;;;-2.07;60.39
76609;BME280;65928;53.936;27.540;2023-03-13T05:42:34;98959.66;;;-2.13;60.86
76609;BME280;65928;53.936;27.540;2023-03-13T05:45:00;98924.16;;;-1.67;59.56
76609;BME280;65928;53.936;27.540;2023-03-13T05:47:25;98574.00;;;-3.69;59.64
76609;BME280;65928;53.936;27.540;2023-03-13T05:49:50;98840.66;;;-2.18;59.51
76609;BME280;65928;53.936;27.540;2023-03-13T05:52:16;98888.88;;;-2.02;59.12
76609;BME280;65928;53.936;27.540;2023-03-13T05:54:41;98911.19;;;-1.67;59.64
76609;BME280;65928;53.936;27.540;2023-03-13T05:57:07;98942.03;;;-1.22;58.40
76609;BME280;65928;53.936;27.540;2023-03-13T05:59:32;98939.41;;;-1.16;58.02
76609;BME280;65928;53.936;27.540;2023-03-13T06:01:58;98941.06;;;-1.06;58.60
76609;BME280;65928;53.936;27.540;2023-03-13T06:04:23;98657.13;;;-2.60;58.48
76609;BME280;65928;53.936;27.540;2023-03-13T06:06:49;98621.00;;;-2.74;57.90
76609;BME280;65928;53.936;27.540;2023-03-13T06:09:14;98692.50;;;-2.65;57.61
76609;BME280;65928;53.936;27.540;2023-03-13T06:11:40;98631.38;;;-2.72;58.16
76609;BME280;65928;53.936;27.540;2023-03-13T06:14:06;98693.22;;;-2.30;57.41
76609;BME280;65928;53.936;27.540;2023-03-13T06:16:31;98877.13;;;-1.09;56.80
76609;BME280;65928;53.936;27.540;2023-03-13T06:18:57;98926.81;;;-0.52;56.55
76609;BME280;65928;53.936;27.540;2023-03-13T06:21:22;98968.97;;;-0.22;56.37
76609;BME280;65928;53.936;27.540;2023-03-13T06:23:48;98697.22;;;-1.88;56.42
76609;BME280;65928;53.936;27.540;2023-03-13T06:26:13;98946.25;;;-1.02;55.46
76609;BME280;65928;53.936;27.540;2023-03-13T06:28:39;98698.53;;;-2.58;55.65
76609;BME280;65928;53.936;27.540;2023-03-13T06:31:06;98624.28;;;-2.43;55.74
76609;BME280;65928;53.936;27.540;2023-03-13T06:33:32;98874.84;;;-0.43;55.43
76609;BME280;65928;53.936;27.540;2023-03-13T06:35:59;98739.66;;;-1.00;55.11
76609;BME280;65928;53.936;27.540;2023-03-13T06:38:25;98634.34;;;-2.04;54.59
76609;BME280;65928;53.936;27.540;2023-03-13T06:40:51;98952.75;;;0.36;54.09
76609;BME280;65928;53.936;27.540;2023-03-13T06:43:17;98945.78;;;0.39;54.83
76609;BME280;65928;53.936;27.540;2023-03-13T06:45:43;98624.94;;;-1.20;54.50
76609;BME280;65928;53.936;27.540;2023-03-13T06:48:08;98686.84;;;-0.91;53.51
76609;BME280;65928;53.936;27.540;2023-03-13T06:50:37;98637.09;;;-1.25;53.71
76609;BME280;65928;53.936;27.540;2023-03-13T06:53:02;98671.19;;;-0.83;53.26
76609;BME280;65928;53.936;27.540;2023-03-13T06:55:28;98892.13;;;0.37;53.73
76609;BME280;65928;53.936;27.540;2023-03-13T06:57:53;98985.00;;;0.91;53.18
76609;BME280;65928;53.936;27.540;2023-03-13T07:00:19;98690.78;;;-0.57;52.83
76609;BME280;65928;53.936;27.540;2023-03-13T07:02:45;98688.78;;;-1.10;51.97
76609;BME280;65928;53.936;27.540;2023-03-13T07:05:11;98897.50;;;0.20;53.34
76609;BME280;65928;53.936;27.540;2023-03-13T07:07:39;98826.41;;;-0.41;52.87
76609;BME280;65928;53.936;27.540;2023-03-13T07:10:05;98945.78;;;0.39;51.66
76609;BME280;65928;53.936;27.540;2023-03-13T07:12:30;98948.97;;;0.64;53.04
76609;BME280;65928;53.936;27.540;2023-03-13T07:14:56;98624.66;;;-0.94;52.02
76609;BME280;65928;53.936;27.540;2023-03-13T07:17:21;98942.09;;;1.19;51.68
76609;BME280;65928;53.936;27.540;2023-03-13T07:19:47;98954.50;;;1.02;51.25
76609;BME280;65928;53.936;27.540;2023-03-13T07:22:12;98770.34;;;0.11;50.77
76609;BME280;65928;53.936;27.540;2023-03-13T07:24:38;98923.56;;;1.39;50.37
76609;BME280;65928;53.936;27.540;2023-03-13T07:27:03;98953.78;;;1.49;50.41
76609;BME280;65928;53.936;27.540;2023-03-13T07:29:29;98882.19;;;1.24;50.31
76609;BME280;65928;53.936;27.540;2023-03-13T07:31:54;98934.50;;;1.59;49.75
76609;BME280;65928;53.936;27.540;2023-03-13T07:34:19;98882.19;;;1.72;49.33
76609;BME280;65928;53.936;27.540;2023-03-13T07:36:45;98829.59;;;1.52;49.55
76609;BME280;65928;53.936;27.540;2023-03-13T07:39:10;98746.56;;;0.93;48.68
76609;BME280;65928;53.936;27.540;2023-03-13T07:41:36;98930.69;;;2.24;49.41
76609;BME280;65928;53.936;27.540;2023-03-13T07:44:01;98613.16;;;0.41;48.48
76609;BME280;65928;53.936;27.540;2023-03-13T07:46:27;98923.16;;;2.10;49.82
76609;BME280;65928;53.936;27.540;2023-03-13T07:48:52;98617.84;;;0.19;48.70
76609;BME280;65928;53.936;27.540;2023-03-13T07:51:22;98928.34;;;2.12;48.74
76609;BME280;65928;53.936;27.540;2023-03-13T07:53:48;98812.41;;;1.90;48.98
76609;BME280;65928;53.936;27.540;2023-03-13T07:56:17;98670.91;;;1.46;49.09
76609;BME280;65928;53.936;27.540;2023-03-13T07:58:43;98907.63;;;2.48;48.19
76609;BME280;65928;53.936;27.540;2023-03-13T08:01:20;98603.22;;;0.61;47.15
76609;BME280;65928;53.936;27.540;2023-03-13T08:03:46;98896.91;;;3.00;47.49
76609;BME280;65928;53.936;27.540;2023-03-13T08:06:16;98586.22;;;1.32;47.21
76609;BME280;65928;53.936;27.540;2023-03-13T08:08:42;98827.91;;;2.75;46.81
76609;BME280;65928;53.936;27.540;2023-03-13T08:11:13;98697.03;;;1.43;46.16
76609;BME280;65928;53.936;27.540;2023-03-13T08:13:39;98584.25;;;0.57;47.74
76609;BME280;65928;53.936;27.540;2023-03-13T08:16:09;98580.63;;;0.64;47.06
76609;BME280;65928;53.936;27.540;2023-03-13T08:18:38;98571.53;;;0.42;47.26
76609;BME280;65928;53.936;27.540;2023-03-13T08:21:07;98752.53;;;1.87;46.37
76609;BME280;65928;53.936;27.540;2023-03-13T08:23:33;98588.28;;;1.15;46.24
76609;BME280;65928;53.936;27.540;2023-03-13T08:26:08;98750.25;;;2.49;45.79
76609;BME280;65928;53.936;27.540;2023-03-13T08:28:35;98851.97;;;3.24;45.83
76609;BME280;65928;53.936;27.540;2023-03-13T08:33:41;98574.97;;;1.68;46.47
76609;BME280;65928;53.936;27.540;2023-03-13T08:36:25;98843.44;;;3.51;46.07
76609;BME280;65928;53.936;27.540;2023-03-13T08:38:52;98910.84;;;3.36;44.66
76609;BME280;65928;53.936;27.540;2023-03-13T08:41:21;98751.16;;;2.85;45.28
76609;BME280;65928;53.936;27.540;2023-03-13T08:43:47;98582.28;;;1.52;46.14
76609;BME280;65928;53.936;27.540;2023-03-13T08:46:14;98831.84;;;3.28;46.26
76609;BME280;65928;53.936;27.540;2023-03-13T08:48:39;98595.63;;;1.37;46.13
76609;BME280;65928;53.936;27.540;2023-03-13T08:51:10;98592.66;;;1.92;46.61
76609;BME280;65928;53.936;27.540;2023-03-13T08:53:37;98853.75;;;3.56;46.68
76609;BME280;65928;53.936;27.540;2023-03-13T08:56:04;98611.19;;;2.15;45.99
76609;BME280;65928;53.936;27.540;2023-03-13T08:58:30;98555.63;;;2.47;45.69
76609;BME280;65928;53.936;27.540;2023-03-13T09:01:07;98591.50;;;2.37;45.29
76609;BME280;65928;53.936;27.540;2023-03-13T09:03:33;98844.66;;;3.71;46.11
76609;BME280;65928;53.936;27.540;2023-03-13T09:05:59;98856.44;;;3.85;44.88
76609;BME280;65928;53.936;27.540;2023-03-13T09:08:26;98491.75;;;1.63;44.36
76609;BME280;65928;53.936;27.540;2023-03-13T09:11:03;98796.53;;;3.47;44.23
76609;BME280;65928;53.936;27.540;2023-03-13T09:13:30;98529.69;;;2.09;45.64
76609;BME280;65928;53.936;27.540;2023-03-13T09:16:00;98644.63;;;3.01;44.79
76609;BME280;65928;53.936;27.540;2023-03-13T09:18:27;98788.72;;;3.78;45.88
76609;BME280;65928;53.936;27.540;2023-03-13T09:20:53;98717.94;;;3.85;45.19
76609;BME280;65928;53.936;27.540;2023-03-13T09:23:20;98809.88;;;4.57;44.76
76609;BME280;65928;53.936;27.540;2023-03-13T09:25:46;98740.00;;;4.33;44.79
76609;BME280;65928;53.936;27.540;2023-03-13T09:28:11;98720.38;;;4.48;44.82
76609;BME280;65928;53.936;27.540;2023-03-13T09:30:37;98574.59;;;3.15;45.13
76609;BME280;65928;53.936;27.540;2023-03-13T09:33:03;98748.13;;;4.24;44.91
76609;BME280;65928;53.936;27.540;2023-03-13T09:35:28;98477.84;;;2.92;45.60
76609;BME280;65928;53.936;27.540;2023-03-13T09:37:53;98795.38;;;4.47;45.18
76609;BME280;65928;53.936;27.540;2023-03-13T09:40:21;98707.53;;;4.40;45.16
76609;BME280;65928;53.936;27.540;2023-03-13T09:42:58;98461.66;;;3.10;44.38
76609;BME280;65928;53.936;27.540;2023-03-13T09:45:40;98468.06;;;3.55;44.61
76609;BME280;65928;53.936;27.540;2023-03-13T09:48:07;98805.00;;;5.27;44.08
76609;BME280;65928;53.936;27.540;2023-03-13T09:50:39;98801.34;;;6.06;43.99
76609;BME280;65928;53.936;27.540;2023-03-13T09:53:19;98769.63;;;6.14;42.85
76609;BME280;65928;53.936;27.540;2023-03-13T09:55:47;98701.25;;;5.95;42.46
76609;BME280;65928;53.936;27.540;2023-03-13T09:58:19;98786.34;;;6.56;43.03
76609;BME280;65928;53.936;27.540;2023-03-13T10:00:51;98741.50;;;6.84;42.55
76609;BME280;65928;53.936;27.540;2023-03-13T10:03:26;98789.19;;;6.95;42.28
76609;BME280;65928;53.936;27.540;2023-03-13T10:06:00;98787.81;;;7.06;41.71
76609;BME280;65928;53.936;27.540;2023-03-13T10:08:29;98485.84;;;4.95;41.89
76609;BME280;65928;53.936;27.540;2023-03-13T10:11:36;98752.09;;;6.81;43.38
76609;BME280;65928;53.936;27.540;2023-03-13T10:14:12;98745.63;;;7.11;42.62
76609;BME280;65928;53.936;27.540;2023-03-13T10:16:55;98575.97;;;5.80;42.78
76609;BME280;65928;53.936;27.540;2023-03-13T10:19:31;98382.94;;;4.00;44.07
76609;BME280;65928;53.936;27.540;2023-03-13T10:22:01;98601.69;;;5.24;44.30
76609;BME280;65928;53.936;27.540;2023-03-13T10:24:48;98769.84;;;6.31;43.84
76609;BME280;65928;53.936;27.540;2023-03-13T10:27:14;98736.56;;;6.10;44.23
76609;BME280;65928;53.936;27.540;2023-03-13T10:29:40;98660.72;;;6.89;43.93
76609;BME280;65928;53.936;27.540;2023-03-13T10:32:07;98702.78;;;7.09;43.03
76609;BME280;65928;53.936;27.540;2023-03-13T10:34:54;98732.91;;;7.00;43.05
76609;BME280;65928;53.936;27.540;2023-03-13T10:37:32;98457.69;;;5.66;43.19
76609;BME280;65928;53.936;27.540;2023-03-13T10:40:23;98411.75;;;4.93;43.56
76609;BME280;65928;53.936;27.540;2023-03-13T10:42:59;98695.16;;;7.23;42.75
76609;BME280;65928;53.936;27.540;2023-03-13T10:45:25;98700.28;;;7.26;42.99
76609;BME280;65928;53.936;27.540;2023-03-13T10:47:59;98374.91;;;6.22;42.24
76609;BME280;65928;53.936;27.540;2023-03-13T10:50:26;98428.41;;;6.96;41.52
76609;BME280;65928;53.936;27.540;2023-03-13T10:52:53;98615.59;;;7.58;41.36
76609;BME280;65928;53.936;27.540;2023-03-13T10:55:22;98655.91;;;7.59;41.86
76609;BME280;65928;53.936;27.540;2023-03-13T10:57:59;98628.06;;;7.35;42.26
76609;BME280;65928;53.936;27.540;2023-03-13T11:02:59;98687.09;;;8.78;41.12
76609;BME280;65928;53.936;27.540;2023-03-13T11:05:30;98390.31;;;7.06;40.97
76609;BME280;65928;53.936;27.540;2023-03-13T11:07:56;98683.22;;;8.49;41.74
76609;BME280;65928;53.936;27.540;2023-03-13T11:10:23;98662.78;;;8.37;41.82
76609;BME280;65928;53.936;27.540;2023-03-13T11:12:53;98632.69;;;8.60;41.43
76609;BME280;65928;53.936;27.540;2023-03-13T11:15:29;98540.63;;;7.68;42.11
76609;BME280;65928;53.936;27.540;2023-03-13T11:20:32;98638.13;;;8.38;42.12
76609;BME280;65928;53.936;27.540;2023-03-13T11:28:08;98689.28;;;7.95;43.47
76609;BME280;65928;53.936;27.540;2023-03-13T11:33:03;98681.44;;;8.50;42.59
76609;BME280;65928;53.936;27.540;2023-03-13T11:35:46;98705.03;;;8.34;42.89
76609;BME280;65928;53.936;27.540;2023-03-13T11:38:24;98690.97;;;8.88;41.75
76609;BME280;65928;53.936;27.540;2023-03-13T11:46:39;98644.25;;;7.64;43.02
76609;BME280;65928;53.936;27.540;2023-03-13T12:00:21;98599.53;;;8.01;43.53
76609;BME280;65928;53.936;27.540;2023-03-13T12:05:44;98397.53;;;6.82;42.47
76609;BME280;65928;53.936;27.540;2023-03-13T12:08:28;98354.13;;;6.57;42.93
76609;BME280;65928;53.936;27.540;2023-03-13T12:11:21;98581.03;;;8.03;43.60
76609;BME280;65928;53.936;27.540;2023-03-13T12:14:02;98612.91;;;7.78;44.26
76609;BME280;65928;53.936;27.540;2023-03-13T12:16:43;98533.88;;;7.25;44.04
76609;BME280;65928;53.936;27.540;2023-03-13T12:19:16;98601.22;;;7.08;45.43
76609;BME280;65928;53.936;27.540;2023-03-13T12:21:49;98613.88;;;7.39;44.92
76609;BME280;65928;53.936;27.540;2023-03-13T12:26:50;98291.16;;;5.59;45.31
76609;BME280;65928;53.936;27.540;2023-03-13T12:34:49;98612.25;;;7.36;46.02
76609;BME280;65928;53.936;27.540;2023-03-13T12:40:22;98567.50;;;6.99;46.52
76609;BME280;65928;53.936;27.540;2023-03-13T12:43:13;98511.19;;;6.66;47.19
76609;BME280;65928;53.936;27.540;2023-03-13T12:59:10;98543.09;;;6.77;47.38
76609;BME280;65928;53.936;27.540;2023-03-13T13:01:41;98580.91;;;6.53;48.15
76609;BME280;65928;53.936;27.540;2023-03-13T13:04:13;98241.53;;;4.73;47.53
76609;BME280;65928;53.936;27.540;2023-03-13T13:06:54;98524.16;;;7.09;47.26
76609;BME280;65928;53.936;27.540;2023-03-13T13:11:57;98505.16;;;6.44;47.74
76609;BME280;65928;53.936;27.540;2023-03-13T13:16:59;98521.13;;;6.98;47.77
76609;BME280;65928;53.936;27.540;2023-03-13T13:32:51;98542.94;;;6.40;49.28
76609;BME280;65928;53.936;27.540;2023-03-13T13:35:23;98543.81;;;6.60;49.25
76609;BME280;65928;53.936;27.540;2023-03-13T13:37:49;98191.47;;;4.82;49.04
76609;BME280;65928;53.936;27.540;2023-03-13T13:42:56;98489.41;;;6.64;48.75
76609;BME280;65928;53.936;27.540;2023-03-13T13:45:25;98232.34;;;5.26;48.70
76609;BME280;65928;53.936;27.540;2023-03-13T13:48:28;98490.00;;;6.30;49.35
76609;BME280;65928;53.936;27.540;2023-03-13T14:12:37;98457.28;;;5.55;51.93
76609;BME280;65928;53.936;27.540;2023-03-13T14:15:07;98401.09;;;5.40;51.59
76609;BME280;65928;53.936;27.540;2023-03-13T14:17:44;98265.03;;;4.74;51.27
76609;BME280;65928;53.936;27.540;2023-03-13T14:20:32;98208.06;;;3.93;52.40
76609;BME280;65928;53.936;27.540;2023-03-13T14:23:04;98198.25;;;3.30;53.61
76609;BME280;65928;53.936;27.540;2023-03-13T14:25:49;98447.41;;;5.40;52.91
76609;BME280;65928;53.936;27.540;2023-03-13T14:28:21;98426.00;;;5.29;53.05
76609;BME280;65928;53.936;27.540;2023-03-13T14:30:49;98105.44;;;3.44;53.68
76609;BME280;65928;53.936;27.540;2023-03-13T14:33:15;98329.47;;;4.32;54.77
76609;BME280;65928;53.936;27.540;2023-03-13T14:35:41;98444.41;;;5.49;55.11
76609;BME280;65928;53.936;27.540;2023-03-13T14:38:15;98406.78;;;5.08;55.63
76609;BME280;65928;53.936;27.540;2023-03-13T14:40:42;98403.06;;;5.35;55.46
76609;BME280;65928;53.936;27.540;2023-03-13T14:43:29;98397.19;;;5.29;55.80
76609;BME280;65928;53.936;27.540;2023-03-13T14:45:55;98136.81;;;3.66;56.15
76609;BME280;65928;53.936;27.540;2023-03-13T14:48:30;98469.03;;;5.45;57.15
76609;BME280;65928;53.936;27.540;2023-03-13T14:51:09;98145.31;;;3.49;57.76